sensor_id;sensor_type;location;lat;lon;timestamp;pressure;altitude;pressure_sealevel;temperature;humidity
18918;BME280;9591;52.742;13.650;2024-01-11T00:01:38;102612.81;;;7.35;32.23
18918;BME280;9591;52.742;13.650;2024-01-11T00:04:25;102618.50;;;6.96;33.04
18918;BME280;9591;52.742;13.650;2024-01-11T00:07:14;102609.75;;;7.00;33.47
18918;BME280;9591;52.742;13.650;2024-01-11T00:10:01;102591.50;;;7.15;33.34
18918;BME280;9591;52.742;13.650;2024-01-11T00:12:53;102580.13;;;7.20;33.06
18918;BME280;9591;52.742;13.650;2024-01-11T00:15:40;102584.03;;;7.57;32.71
18918;BME280;9591;52.742;13.650;2024-01-11T00:18:35;102578.72;;;7.51;33.19
18918;BME280;9591;52.742;13.650;2024-01-11T00:21:22;102572.81;;;7.83;32.67
18918;BME280;9591;52.742;13.650;2024-01-11T00:24:10;102584.91;;;7.55;33.49
18918;BME280;9591;52.742;13.650;2024-01-11T00:26:57;102565.75;;;7.80;33.22
18918;BME280;9591;52.742;13.650;2024-01-11T00:29:46;102560.59;;;7.94;32.68
18918;BME280;9591;52.742;13.650;2024-01-11T00:32:34;102541.97;;;7.71;32.94
18918;BME280;9591;52.742;13.650;2024-01-11T00:35:27;102529.09;;;8.20;32.81
18918;BME280;9591;52.742;13.650;2024-01-11T00:38:16;102539.44;;;7.89;33.22
18918;BME280;9591;52.742;13.650;2024-01-11T00:41:06;102523.06;;;8.35;33.05
18918;BME280;9591;52.742;13.650;2024-01-11T00:43:53;102517.91;;;8.64;32.85
18918;BME280;9591;52.742;13.650;2024-01-11T00:46:45;102514.34;;;8.52;33.11
18918;BME280;9591;52.742;13.650;2024-01-11T00:49:32;102509.97;;;8.67;33.06
18918;BME280;9591;52.742;13.650;2024-01-11T00:52:20;102506.50;;;8.78;32.63
18918;BME280;9591;52.742;13.650;2024-01-11T00:55:07;102512.53;;;8.45;33.66
18918;BME280;9591;52.742;13.650;2024-01-11T00:57:54;102494.69;;;8.03;35.17
18918;BME280;9591;52.742;13.650;2024-01-11T01:00:43;102517.56;;;8.06;35.45
18918;BME280;9591;52.742;13.650;2024-01-11T01:03:32;102515.31;;;8.85;33.56
18918;BME280;9591;52.742;13.650;2024-01-11T01:06:21;102497.66;;;8.75;33.81
18918;BME280;9591;52.742;13.650;2024-01-11T01:09:10;102500.34;;;8.88;33.45
18918;BME280;9591;52.742;13.650;2024-01-11T01:11:57;102503.91;;;9.03;33.59
18918;BME280;9591;52.742;13.650;2024-01-11T01:14:44;102519.69;;;8.72;34.30
18918;BME280;9591;52.742;13.650;2024-01-11T01:17:33;102522.47;;;9.27;33.14
18918;BME280;9591;52.742;13.650;2024-01-11T01:20:21;102510.84;;;8.69;33.71
18918;BME280;9591;52.742;13.650;2024-01-11T01:23:08;102516.31;;;9.31;33.14
18918;BME280;9591;52.742;13.650;2024-01-11T01:26:01;102520.72;;;9.32;33.41
18918;BME280;9591;52.742;13.650;2024-01-11T01:28:52;102525.97;;;9.09;33.25
18918;BME280;9591;52.742;13.650;2024-01-11T01:31:41;102530.41;;;9.54;32.75
18918;BME280;9591;52.742;13.650;2024-01-11T01:34:28;102533.94;;;9.61;32.86
18918;BME280;9591;52.742;13.650;2024-01-11T01:37:15;102561.16;;;8.93;34.11
18918;BME280;9591;52.742;13.650;2024-01-11T01:40:05;102555.09;;;9.57;33.36
18918;BME280;9591;52.742;13.650;2024-01-11T01:42:59;102555.97;;;9.27;33.67
18918;BME280;9591;52.742;13.650;2024-01-11T01:45:56;102553.28;;;9.17;33.56
18918;BME280;9591;52.742;13.650;2024-01-11T01:48:44;102558.63;;;9.43;33.52
18918;BME280;9591;52.742;13.650;2024-01-11T01:51:33;102548.03;;;9.63;33.30
18918;BME280;9591;52.742;13.650;2024-01-11T01:54:22;102551.59;;;9.53;33.41
18918;BME280;9591;52.742;13.650;2024-01-11T01:57:26;102513.66;;;9.59;33.73
18918;BME280;9591;52.742;13.650;2024-01-11T02:00:17;102528.66;;;9.69;33.59
18918;BME280;9591;52.742;13.650;2024-01-11T02:03:05;102541.00;;;9.33;34.44
18918;BME280;9591;52.742;13.650;2024-01-11T02:05:52;102550.69;;;9.71;33.90
18918;BME280;9591;52.742;13.650;2024-01-11T02:08:49;102540.13;;;9.51;34.28
18918;BME280;9591;52.742;13.650;2024-01-11T02:12:04;102536.56;;;9.85;33.97
18918;BME280;9591;52.742;13.650;2024-01-11T02:14:57;102533.03;;;9.91;33.44
18918;BME280;9591;52.742;13.650;2024-01-11T02:17:45;102526.00;;;9.82;33.55
18918;BME280;9591;52.742;13.650;2024-01-11T02:20:33;102518.91;;;10.01;34.07
18918;BME280;9591;52.742;13.650;2024-01-11T02:23:24;102517.13;;;10.08;33.79
18918;BME280;9591;52.742;13.650;2024-01-11T02:26:15;102505.72;;;9.71;34.19
18918;BME280;9591;52.742;13.650;2024-01-11T02:29:02;102510.06;;;10.19;33.75
18918;BME280;9591;52.742;13.650;2024-01-11T02:31:49;102494.97;;;10.41;33.48
18918;BME280;9591;52.742;13.650;2024-01-11T02:34:40;102503.91;;;10.09;33.68
18918;BME280;9591;52.742;13.650;2024-01-11T02:37:26;102490.72;;;9.85;34.36
18918;BME280;9591;52.742;13.650;2024-01-11T02:40:16;102495.97;;;10.20;33.95
18918;BME280;9591;52.742;13.650;2024-01-11T02:43:14;102504.84;;;9.60;35.13
18918;BME280;9591;52.742;13.650;2024-01-11T02:46:01;102488.94;;;9.93;34.46
18918;BME280;9591;52.742;13.650;2024-01-11T02:48:51;102513.66;;;9.54;34.89
18918;BME280;9591;52.742;13.650;2024-01-11T02:51:41;102510.16;;;9.52;34.98
18918;BME280;9591;52.742;13.650;2024-01-11T02:54:27;102516.31;;;9.46;35.02
18918;BME280;9591;52.742;13.650;2024-01-11T02:57:15;102538.19;;;8.66;36.89
18918;BME280;9591;52.742;13.650;2024-01-11T03:00:12;102527.75;;;9.68;35.39
18918;BME280;9591;52.742;13.650;2024-01-11T03:03:00;102511.88;;;9.86;34.93
18918;BME280;9591;52.742;13.650;2024-01-11T03:05:49;102517.13;;;10.11;34.47
18918;BME280;9591;52.742;13.650;2024-01-11T03:08:36;102506.44;;;10.44;34.13
18918;BME280;9591;52.742;13.650;2024-01-11T03:11:25;102508.31;;;10.12;34.27
18918;BME280;9591;52.742;13.650;2024-01-11T03:14:12;102507.28;;;10.56;33.47
18918;BME280;9591;52.742;13.650;2024-01-11T03:17:06;102504.56;;;10.71;33.75
18918;BME280;9591;52.742;13.650;2024-01-11T03:19:53;102502.88;;;10.55;34.11
18918;BME280;9591;52.742;13.650;2024-01-11T03:22:46;102490.56;;;10.41;33.77
18918;BME280;9591;52.742;13.650;2024-01-11T03:25:35;102466.56;;;10.73;33.12
18918;BME280;9591;52.742;13.650;2024-01-11T03:28:24;102484.38;;;10.44;34.19
18918;BME280;9591;52.742;13.650;2024-01-11T03:31:11;102463.16;;;10.53;33.58
18918;BME280;9591;52.742;13.650;2024-01-11T03:33:59;102459.47;;;10.80;33.60
18918;BME280;9591;52.742;13.650;2024-01-11T03:36:48;102465.88;;;10.38;33.61
18918;BME280;9591;52.742;13.650;2024-01-11T03:39:37;102460.22;;;11.03;33.55
18918;BME280;9591;52.742;13.650;2024-01-11T03:42:26;102458.63;;;10.73;33.26
18918;BME280;9591;52.742;13.650;2024-01-11T03:45:23;102454.09;;;10.92;33.20
18918;BME280;9591;52.742;13.650;2024-01-11T03:48:10;102456.03;;;10.61;33.90
18918;BME280;9591;52.742;13.650;2024-01-11T03:51:04;102454.44;;;10.17;34.64
18918;BME280;9591;52.742;13.650;2024-01-11T03:53:53;102467.72;;;10.13;35.27
18918;BME280;9591;52.742;13.650;2024-01-11T03:56:41;102452.69;;;10.29;34.47
18918;BME280;9591;52.742;13.650;2024-01-11T03:59:28;102456.97;;;10.49;34.80
18918;BME280;9591;52.742;13.650;2024-01-11T04:02:17;102407.38;;;10.74;33.63
18918;BME280;9591;52.742;13.650;2024-01-11T04:05:07;102477.47;;;9.93;35.27
18918;BME280;9591;52.742;13.650;2024-01-11T04:07:59;102473.00;;;10.28;34.72
18918;BME280;9591;52.742;13.650;2024-01-11T04:10:48;102469.47;;;10.20;34.85
18918;BME280;9591;52.742;13.650;2024-01-11T04:13:35;102453.34;;;10.72;34.13
18918;BME280;9591;52.742;13.650;2024-01-11T04:16:27;102448.06;;;10.69;34.48
18918;BME280;9591;52.742;13.650;2024-01-11T04:19:16;102473.88;;;10.12;35.54
18918;BME280;9591;52.742;13.650;2024-01-11T04:22:08;102457.84;;;10.51;34.59
18918;BME280;9591;52.742;13.650;2024-01-11T04:24:58;102461.53;;;10.15;34.82
18918;BME280;9591;52.742;13.650;2024-01-11T04:27:45;102460.38;;;10.74;34.82
18918;BME280;9591;52.742;13.650;2024-01-11T04:30:32;102449.88;;;10.59;34.53
18918;BME280;9591;52.742;13.650;2024-01-11T04:33:24;102431.94;;;11.02;33.96
18918;BME280;9591;52.742;13.650;2024-01-11T04:36:13;102414.19;;;11.13;33.96
18918;BME280;9591;52.742;13.650;2024-01-11T04:38:59;102429.34;;;10.95;34.44
18918;BME280;9591;52.742;13.650;2024-01-11T04:41:52;102429.16;;;11.18;33.91
18918;BME280;9591;52.742;13.650;2024-01-11T04:44:42;102430.44;;;10.60;34.73
18918;BME280;9591;52.742;13.650;2024-01-11T04:47:33;102422.28;;;10.91;33.92
18918;BME280;9591;52.742;13.650;2024-01-11T04:50:20;102433.00;;;10.77;34.71
18918;BME280;9591;52.742;13.650;2024-01-11T04:53:08;102441.31;;;9.85;36.42
18918;BME280;9591;52.742;13.650;2024-01-11T04:55:55;102455.34;;;10.15;36.14
18918;BME280;9591;52.742;13.650;2024-01-11T04:58:48;102449.81;;;10.71;35.27
18918;BME280;9591;52.742;13.650;2024-01-11T05:01:35;102409.09;;;10.84;34.60
18918;BME280;9591;52.742;13.650;2024-01-11T05:04:24;102408.28;;;10.72;34.52
18918;BME280;9591;52.742;13.650;2024-01-11T05:07:13;102390.66;;;10.63;34.74
18918;BME280;9591;52.742;13.650;2024-01-11T05:10:00;102400.06;;;11.10;34.27
18918;BME280;9591;52.742;13.650;2024-01-11T05:12:49;102433.31;;;11.46;33.85
18918;BME280;9591;52.742;13.650;2024-01-11T05:15:40;102422.50;;;11.69;33.94
18918;BME280;9591;52.742;13.650;2024-01-11T05:18:29;102420.69;;;11.71;33.14
18918;BME280;9591;52.742;13.650;2024-01-11T05:21:20;102403.09;;;11.62;33.25
18918;BME280;9591;52.742;13.650;2024-01-11T05:24:07;102404.78;;;11.69;33.71
18918;BME280;9591;52.742;13.650;2024-01-11T05:26:57;102412.16;;;11.40;34.15
18918;BME280;9591;52.742;13.650;2024-01-11T05:29:47;102412.50;;;10.99;34.60
18918;BME280;9591;52.742;13.650;2024-01-11T05:32:37;102416.97;;;10.95;35.01
18918;BME280;9591;52.742;13.650;2024-01-11T05:35:25;102407.19;;;11.02;34.70
18918;BME280;9591;52.742;13.650;2024-01-11T05:38:13;102411.22;;;11.45;33.99
18918;BME280;9591;52.742;13.650;2024-01-11T05:41:01;102413.78;;;11.56;33.86
18918;BME280;9591;52.742;13.650;2024-01-11T05:43:49;102424.53;;;11.41;34.13
18918;BME280;9591;52.742;13.650;2024-01-11T05:46:36;102421.66;;;11.62;34.00
18918;BME280;9591;52.742;13.650;2024-01-11T05:49:26;102440.31;;;11.56;34.27
18918;BME280;9591;52.742;13.650;2024-01-11T05:52:18;102439.75;;;11.22;34.98
18918;BME280;9591;52.742;13.650;2024-01-11T05:55:07;102426.13;;;11.60;33.94
18918;BME280;9591;52.742;13.650;2024-01-11T05:57:57;102434.16;;;11.53;34.39
18918;BME280;9591;52.742;13.650;2024-01-11T06:00:44;102417.16;;;11.72;33.73
18918;BME280;9591;52.742;13.650;2024-01-11T06:03:33;102406.47;;;11.82;33.83
18918;BME280;9591;52.742;13.650;2024-01-11T06:06:24;102409.97;;;11.85;33.94
18918;BME280;9591;52.742;13.650;2024-01-11T06:09:14;102408.19;;;11.85;33.87
18918;BME280;9591;52.742;13.650;2024-01-11T06:12:01;102410.09;;;11.69;33.65
18918;BME280;9591;52.742;13.650;2024-01-11T06:14:48;102402.03;;;11.83;33.94
18918;BME280;9591;52.742;13.650;2024-01-11T06:17:35;102404.56;;;11.94;33.64
18918;BME280;9591;52.742;13.650;2024-01-11T06:20:22;102409.22;;;11.69;33.72
18918;BME280;9591;52.742;13.650;2024-01-11T06:23:12;102404.75;;;11.77;34.06
18918;BME280;9591;52.742;13.650;2024-01-11T06:26:04;102394.94;;;11.85;33.87
18918;BME280;9591;52.742;13.650;2024-01-11T06:28:53;102386.88;;;11.93;33.97
18918;BME280;9591;52.742;13.650;2024-01-11T06:31:43;102378.25;;;11.68;33.65
18918;BME280;9591;52.742;13.650;2024-01-11T06:34:31;102393.28;;;11.69;34.00
18918;BME280;9591;52.742;13.650;2024-01-11T06:37:18;102389.50;;;11.94;33.83
18918;BME280;9591;52.742;13.650;2024-01-11T06:40:15;102384.34;;;11.80;33.91
18918;BME280;9591;52.742;13.650;2024-01-11T06:43:05;102379.22;;;11.61;34.29
18918;BME280;9591;52.742;13.650;2024-01-11T06:46:04;102379.94;;;11.76;34.18
18918;BME280;9591;52.742;13.650;2024-01-11T06:48:52;102376.28;;;11.90;33.87
18918;BME280;9591;52.742;13.650;2024-01-11T06:51:40;102377.34;;;11.70;34.22
18918;BME280;9591;52.742;13.650;2024-01-11T06:54:27;102379.28;;;11.56;34.60
18918;BME280;9591;52.742;13.650;2024-01-11T06:57:19;102370.34;;;11.63;34.56
18918;BME280;9591;52.742;13.650;2024-01-11T07:00:07;102385.44;;;10.52;36.80
18918;BME280;9591;52.742;13.650;2024-01-11T07:02:54;102371.66;;;11.23;35.59
18918;BME280;9591;52.742;13.650;2024-01-11T07:05:44;102383.69;;;11.57;34.91
18918;BME280;9591;52.742;13.650;2024-01-11T07:08:34;102368.84;;;11.36;35.51
18918;BME280;9591;52.742;13.650;2024-01-11T07:11:23;102376.66;;;11.52;35.16
18918;BME280;9591;52.742;13.650;2024-01-11T07:14:14;102376.38;;;11.82;34.76
18918;BME280;9591;52.742;13.650;2024-01-11T07:17:02;102376.22;;;11.94;34.48
18918;BME280;9591;52.742;13.650;2024-01-11T07:20:07;102378.44;;;12.28;33.86
18918;BME280;9591;52.742;13.650;2024-01-11T07:23:12;102384.69;;;12.24;34.01
18918;BME280;9591;52.742;13.650;2024-01-11T07:26:04;102385.44;;;12.33;34.20
18918;BME280;9591;52.742;13.650;2024-01-11T07:28:56;102386.25;;;11.66;35.35
18918;BME280;9591;52.742;13.650;2024-01-11T07:31:48;102389.53;;;11.93;34.75
18918;BME280;9591;52.742;13.650;2024-01-11T07:34:39;102376.44;;;11.74;35.03
18918;BME280;9591;52.742;13.650;2024-01-11T07:37:28;102376.41;;;11.79;35.29
18918;BME280;9591;52.742;13.650;2024-01-11T07:40:16;102372.38;;;12.17;34.45
18918;BME280;9591;52.742;13.650;2024-01-11T07:43:05;102367.81;;;12.28;34.64
18918;BME280;9591;52.742;13.650;2024-01-11T07:45:55;102367.91;;;12.20;34.59
18918;BME280;9591;52.742;13.650;2024-01-11T07:48:44;102366.16;;;12.19;34.60
18918;BME280;9591;52.742;13.650;2024-01-11T07:51:32;102362.00;;;12.00;35.26
18918;BME280;9591;52.742;13.650;2024-01-11T07:54:21;102351.06;;;12.23;34.65
18918;BME280;9591;52.742;13.650;2024-01-11T07:57:08;102353.53;;;12.35;34.83
18918;BME280;9591;52.742;13.650;2024-01-11T07:59:54;102373.13;;;11.51;36.41
18918;BME280;9591;52.742;13.650;2024-01-11T08:02:41;102369.56;;;11.54;36.10
18918;BME280;9591;52.742;13.650;2024-01-11T08:05:33;102370.03;;;11.06;37.46
18918;BME280;9591;52.742;13.650;2024-01-11T08:08:25;102375.66;;;11.65;36.39
18918;BME280;9591;52.742;13.650;2024-01-11T08:11:15;102369.31;;;11.76;36.24
18918;BME280;9591;52.742;13.650;2024-01-11T08:14:01;102369.91;;;11.22;37.49
18918;BME280;9591;52.742;13.650;2024-01-11T08:16:54;102366.97;;;11.49;36.91
18918;BME280;9591;52.742;13.650;2024-01-11T08:19:48;102358.06;;;12.28;35.71
18918;BME280;9591;52.742;13.650;2024-01-11T08:22:36;102365.75;;;11.84;36.48
18918;BME280;9591;52.742;13.650;2024-01-11T08:25:24;102361.00;;;12.08;36.11
18918;BME280;9591;52.742;13.650;2024-01-11T08:28:12;102345.63;;;12.32;35.61
18918;BME280;9591;52.742;13.650;2024-01-11T08:30:59;102350.38;;;12.10;36.03
18918;BME280;9591;52.742;13.650;2024-01-11T08:33:46;102345.25;;;12.58;35.36
18918;BME280;9591;52.742;13.650;2024-01-11T08:36:34;102338.72;;;12.78;34.45
18918;BME280;9591;52.742;13.650;2024-01-11T08:39:25;102345.47;;;12.42;35.74
18918;BME280;9591;52.742;13.650;2024-01-11T08:42:12;102339.72;;;12.71;35.36
18918;BME280;9591;52.742;13.650;2024-01-11T08:45:00;102343.38;;;12.03;36.52
18918;BME280;9591;52.742;13.650;2024-01-11T08:47:52;102323.47;;;12.31;35.56
18918;BME280;9591;52.742;13.650;2024-01-11T08:50:42;102298.31;;;12.55;35.84
18918;BME280;9591;52.742;13.650;2024-01-11T08:53:29;102305.13;;;12.14;36.39
18918;BME280;9591;52.742;13.650;2024-01-11T08:56:17;102292.28;;;12.99;35.44
18918;BME280;9591;52.742;13.650;2024-01-11T08:59:04;102293.72;;;13.17;34.73
18918;BME280;9591;52.742;13.650;2024-01-11T09:01:56;102285.84;;;12.60;36.15
18918;BME280;9591;52.742;13.650;2024-01-11T09:05:01;102296.31;;;12.69;35.80
18918;BME280;9591;52.742;13.650;2024-01-11T09:07:54;102301.16;;;12.44;36.23
18918;BME280;9591;52.742;13.650;2024-01-11T09:10:47;102310.84;;;13.01;35.80
18918;BME280;9591;52.742;13.650;2024-01-11T09:13:37;102319.88;;;12.92;35.93
18918;BME280;9591;52.742;13.650;2024-01-11T09:16:26;102318.41;;;13.25;35.23
18918;BME280;9591;52.742;13.650;2024-01-11T09:19:22;102324.75;;;12.64;36.10
18918;BME280;9591;52.742;13.650;2024-01-11T09:22:11;102325.72;;;13.12;35.36
18918;BME280;9591;52.742;13.650;2024-01-11T09:24:58;102311.19;;;12.83;35.46
18918;BME280;9591;52.742;13.650;2024-01-11T09:27:46;102312.31;;;13.20;35.01
18918;BME280;9591;52.742;13.650;2024-01-11T09:30:37;102306.88;;;13.26;35.24
18918;BME280;9591;52.742;13.650;2024-01-11T09:33:24;102317.31;;;12.86;35.74
18918;BME280;9591;52.742;13.650;2024-01-11T09:36:12;102332.94;;;11.89;37.58
18918;BME280;9591;52.742;13.650;2024-01-11T09:39:00;102323.47;;;11.62;38.45
18918;BME280;9591;52.742;13.650;2024-01-11T09:41:52;102327.63;;;12.51;36.97
18918;BME280;9591;52.742;13.650;2024-01-11T09:44:46;102325.91;;;12.46;36.94
18918;BME280;9591;52.742;13.650;2024-01-11T09:47:40;102340.03;;;11.87;38.09
18918;BME280;9591;52.742;13.650;2024-01-11T09:50:29;102333.44;;;12.75;36.18
18918;BME280;9591;52.742;13.650;2024-01-11T09:53:19;102333.44;;;13.28;35.87
18918;BME280;9591;52.742;13.650;2024-01-11T09:56:11;102337.97;;;12.69;36.67
18918;BME280;9591;52.742;13.650;2024-01-11T09:59:06;102342.88;;;12.38;37.32
18918;BME280;9591;52.742;13.650;2024-01-11T10:02:00;102345.72;;;12.24;38.14
18918;BME280;9591;52.742;13.650;2024-01-11T10:04:55;102342.88;;;11.67;38.91
18918;BME280;9591;52.742;13.650;2024-01-11T10:07:46;102343.09;;;12.21;37.98
18918;BME280;9591;52.742;13.650;2024-01-11T10:10:36;102336.75;;;11.62;39.06
18918;BME280;9591;52.742;13.650;2024-01-11T10:13:28;102334.75;;;11.86;38.83
18918;BME280;9591;52.742;13.650;2024-01-11T10:16:16;102338.44;;;12.38;38.07
18918;BME280;9591;52.742;13.650;2024-01-11T10:19:04;102339.19;;;12.48;37.34
18918;BME280;9591;52.742;13.650;2024-01-11T10:21:58;102340.75;;;13.13;36.73
18918;BME280;9591;52.742;13.650;2024-01-11T10:24:48;102340.13;;;12.44;37.39
18918;BME280;9591;52.742;13.650;2024-01-11T10:27:35;102337.31;;;12.55;37.47
18918;BME280;9591;52.742;13.650;2024-01-11T10:30:22;102331.50;;;12.28;37.96
18918;BME280;9591;52.742;13.650;2024-01-11T10:33:10;102332.06;;;13.04;36.82
18918;BME280;9591;52.742;13.650;2024-01-11T10:36:01;102317.31;;;12.86;37.14
18918;BME280;9591;52.742;13.650;2024-01-11T10:39:03;102301.94;;;13.03;36.92
18918;BME280;9591;52.742;13.650;2024-01-11T10:42:09;102306.75;;;12.82;37.10
18918;BME280;9591;52.742;13.650;2024-01-11T10:45:03;102297.66;;;12.96;37.04
18918;BME280;9591;52.742;13.650;2024-01-11T10:47:54;102281.69;;;12.96;36.91
18918;BME280;9591;52.742;13.650;2024-01-11T10:50:54;102296.75;;;12.42;38.42
18918;BME280;9591;52.742;13.650;2024-01-11T10:53:42;102297.00;;;12.82;37.42
18918;BME280;9591;52.742;13.650;2024-01-11T10:56:36;102308.38;;;12.90;37.33
18918;BME280;9591;52.742;13.650;2024-01-11T10:59:31;102309.50;;;12.77;37.68
18918;BME280;9591;52.742;13.650;2024-01-11T11:02:26;102307.25;;;13.03;37.39
18918;BME280;9591;52.742;13.650;2024-01-11T11:05:16;102310.34;;;13.30;36.47
18918;BME280;9591;52.742;13.650;2024-01-11T11:08:10;102299.88;;;13.21;36.86
18918;BME280;9591;52.742;13.650;2024-01-11T11:11:06;102311.22;;;12.23;38.39
18918;BME280;9591;52.742;13.650;2024-01-11T11:14:07;102318.00;;;12.42;38.63
18918;BME280;9591;52.742;13.650;2024-01-11T11:16:54;102327.50;;;13.61;36.28
18918;BME280;9591;52.742;13.650;2024-01-11T11:19:46;102336.59;;;13.50;36.75
18918;BME280;9591;52.742;13.650;2024-01-11T11:22:33;102334.94;;;13.44;36.31
18918;BME280;9591;52.742;13.650;2024-01-11T11:25:24;102336.31;;;13.17;36.89
18918;BME280;9591;52.742;13.650;2024-01-11T11:28:17;102329.59;;;13.44;36.65
18918;BME280;9591;52.742;13.650;2024-01-11T11:31:10;102327.19;;;12.79;38.58
18918;BME280;9591;52.742;13.650;2024-01-11T11:34:04;102333.63;;;12.63;38.08
18918;BME280;9591;52.742;13.650;2024-01-11T11:36:54;102323.00;;;13.16;37.36
18918;BME280;9591;52.742;13.650;2024-01-11T11:39:42;102317.44;;;12.78;38.17
18918;BME280;9591;52.742;13.650;2024-01-11T11:42:33;102310.19;;;12.31;39.60
18918;BME280;9591;52.742;13.650;2024-01-11T11:45:26;102302.25;;;12.30;39.58
18918;BME280;9591;52.742;13.650;2024-01-11T11:48:51;102316.16;;;12.48;39.58
18918;BME280;9591;52.742;13.650;2024-01-11T11:51:45;102303.72;;;12.51;39.52
18918;BME280;9591;52.742;13.650;2024-01-11T11:54:34;102299.84;;;12.71;38.59
18918;BME280;9591;52.742;13.650;2024-01-11T11:57:21;102306.03;;;13.24;37.94
18918;BME280;9591;52.742;13.650;2024-01-11T12:00:14;102310.88;;;12.45;39.38
18918;BME280;9591;52.742;13.650;2024-01-11T12:03:09;102308.50;;;12.27;39.94
18918;BME280;9591;52.742;13.650;2024-01-11T12:06:02;102304.00;;;12.88;38.36
18918;BME280;9591;52.742;13.650;2024-01-11T12:08:57;102309.59;;;13.69;36.96
18918;BME280;9591;52.742;13.650;2024-01-11T12:11:44;102319.47;;;14.04;36.42
18918;BME280;9591;52.742;13.650;2024-01-11T12:14:59;102323.91;;;13.14;37.74
18918;BME280;9591;52.742;13.650;2024-01-11T12:17:57;102318.38;;;13.27;37.75
18918;BME280;9591;52.742;13.650;2024-01-11T12:20:49;102308.19;;;13.50;37.06
18918;BME280;9591;52.742;13.650;2024-01-11T12:23:42;102297.66;;;13.44;37.18
18918;BME280;9591;52.742;13.650;2024-01-11T12:26:30;102279.34;;;14.12;36.36
18918;BME280;9591;52.742;13.650;2024-01-11T12:29:17;102281.34;;;14.42;35.60
18918;BME280;9591;52.742;13.650;2024-01-11T12:32:07;102274.50;;;14.68;35.23
18918;BME280;9591;52.742;13.650;2024-01-11T12:35:01;102268.06;;;14.75;35.17
18918;BME280;9591;52.742;13.650;2024-01-11T12:38:00;102265.06;;;14.55;35.37
18918;BME280;9591;52.742;13.650;2024-01-11T12:40:50;102269.09;;;14.71;35.35
18918;BME280;9591;52.742;13.650;2024-01-11T12:43:37;102266.19;;;15.13;34.45
18918;BME280;9591;52.742;13.650;2024-01-11T12:46:24;102255.84;;;14.68;34.81
18918;BME280;9591;52.742;13.650;2024-01-11T12:49:11;102243.25;;;15.38;34.31
18918;BME280;9591;52.742;13.650;2024-01-11T12:51:58;102231.09;;;15.28;34.40
18918;BME280;9591;52.742;13.650;2024-01-11T12:54:52;102232.25;;;15.18;34.06
18918;BME280;9591;52.742;13.650;2024-01-11T12:57:48;102234.84;;;14.88;35.05
18918;BME280;9591;52.742;13.650;2024-01-11T13:00:37;102241.09;;;14.53;35.55
18918;BME280;9591;52.742;13.650;2024-01-11T13:03:25;102236.63;;;14.88;34.92
18918;BME280;9591;52.742;13.650;2024-01-11T13:06:41;102230.72;;;14.39;35.83
18918;BME280;9591;52.742;13.650;2024-01-11T13:09:27;102225.91;;;14.89;35.03
18918;BME280;9591;52.742;13.650;2024-01-11T13:12:14;102230.59;;;14.47;35.58
18918;BME280;9591;52.742;13.650;2024-01-11T13:15:13;102218.72;;;14.59;35.86
18918;BME280;9591;52.742;13.650;2024-01-11T13:18:27;102224.59;;;14.73;35.23
18918;BME280;9591;52.742;13.650;2024-01-11T13:21:13;102209.81;;;14.23;36.28
18918;BME280;9591;52.742;13.650;2024-01-11T13:24:00;102203.16;;;14.03;36.61
18918;BME280;9591;52.742;13.650;2024-01-11T13:26:47;102207.03;;;14.64;35.66
18918;BME280;9591;52.742;13.650;2024-01-11T13:29:40;102223.94;;;13.01;38.55
18918;BME280;9591;52.742;13.650;2024-01-11T13:32:29;102207.16;;;14.23;36.00
18918;BME280;9591;52.742;13.650;2024-01-11T13:35:19;102192.00;;;14.62;35.54
18918;BME280;9591;52.742;13.650;2024-01-11T13:38:21;102202.69;;;14.60;35.80
18918;BME280;9591;52.742;13.650;2024-01-11T13:41:10;102204.91;;;14.77;35.38
18918;BME280;9591;52.742;13.650;2024-01-11T13:43:59;102201.75;;;14.63;35.74
18918;BME280;9591;52.742;13.650;2024-01-11T13:46:52;102211.16;;;14.76;35.49
18918;BME280;9591;52.742;13.650;2024-01-11T13:49:40;102199.47;;;15.13;34.69
18918;BME280;9591;52.742;13.650;2024-01-11T13:52:27;102200.38;;;14.47;35.53
18918;BME280;9591;52.742;13.650;2024-01-11T13:55:14;102186.81;;;14.88;34.96
18918;BME280;9591;52.742;13.650;2024-01-11T13:58:01;102182.69;;;15.09;34.73
18918;BME280;9591;52.742;13.650;2024-01-11T14:00:49;102185.13;;;15.17;34.42
18918;BME280;9591;52.742;13.650;2024-01-11T14:03:42;102193.97;;;14.54;35.78
18918;BME280;9591;52.742;13.650;2024-01-11T14:06:32;102193.00;;;14.58;35.48
18918;BME280;9591;52.742;13.650;2024-01-11T14:09:22;102195.22;;;14.02;36.90
18918;BME280;9591;52.742;13.650;2024-01-11T14:12:18;102185.97;;;13.81;37.40
18918;BME280;9591;52.742;13.650;2024-01-11T14:15:07;102185.53;;;13.18;38.38
18918;BME280;9591;52.742;13.650;2024-01-11T14:17:57;102199.34;;;13.78;37.43
18918;BME280;9591;52.742;13.650;2024-01-11T14:20:44;102196.13;;;14.01;36.86
18918;BME280;9591;52.742;13.650;2024-01-11T14:23:36;102207.25;;;14.18;36.80
18918;BME280;9591;52.742;13.650;2024-01-11T14:26:26;102211.09;;;13.68;37.80
18918;BME280;9591;52.742;13.650;2024-01-11T14:29:36;102207.53;;;14.45;36.43
18918;BME280;9591;52.742;13.650;2024-01-11T14:32:25;102208.97;;;14.58;36.35
18918;BME280;9591;52.742;13.650;2024-01-11T14:35:22;102217.63;;;14.30;36.39
18918;BME280;9591;52.742;13.650;2024-01-11T14:38:09;102213.72;;;13.69;37.43
18918;BME280;9591;52.742;13.650;2024-01-11T14:41:01;102212.81;;;14.80;35.75
18918;BME280;9591;52.742;13.650;2024-01-11T14:43:51;102223.59;;;14.40;36.12
18918;BME280;9591;52.742;13.650;2024-01-11T14:46:56;102223.66;;;14.38;36.19
18918;BME280;9591;52.742;13.650;2024-01-11T14:49:43;102219.94;;;14.80;35.79
18918;BME280;9591;52.742;13.650;2024-01-11T14:52:30;102222.88;;;15.03;35.26
18918;BME280;9591;52.742;13.650;2024-01-11T14:55:19;102230.41;;;14.16;36.43